ADDS METAR Data INFO
IDs: Format: Raw Decoded Include TAF

Data at: 0339 UTC 28 Jun 2017

K1P1 280335Z AUTO 00000KT 10SM CLR 12/11 A2995 RMK AO2 T01160105
K1P1 280315Z AUTO 29003KT 10SM CLR 12/11 A2995 RMK AO2 T01160105
K1P1 280255Z AUTO 29003KT 10SM CLR 12/11 A2995 RMK AO2 60001 T01170105
K1P1 280235Z AUTO 00000KT 10SM CLR 12/11 A2994 RMK AO2 T01200107
K1P1 280215Z AUTO 00000KT 10SM SCT110 12/11 A2994 RMK AO2 T01220112
K1P1 280155Z AUTO 00000KT 10SM SCT110 13/12 A2994 RMK AO2 T01260116
K1P1 280135Z AUTO 00000KT 10SM CLR 13/12 A2994 RMK AO2 T01300118
K1P1 280115Z AUTO 00000KT 10SM VCTS CLR 13/12 A2993 RMK AO2 LTG DSNT SE T01320120
K1P1 280055Z AUTO 00000KT 10SM SCT100 14/12 A2992 RMK AO2 LTG DSNT N E AND S P0001 T01350119
K1P1 280035Z AUTO 00000KT 10SM VCTS SCT043 BKN100 BKN120 14/12 A2992 RMK AO2 LTG DSNT NE AND SE P0001 T01420117
K1P1 280015Z AUTO 28003KT 10SM VCTS SCT023 SCT034 BKN043 15/12 A2991 RMK AO2 LTG DSNT N THRU E P0001 T01500120
K1P1 272355Z AUTO 27009KT 5SM +VCTSRA SCT024 BKN037 OVC060 17/13 A2991 RMK AO2 LTG DSNT N AND NW P0003 60003 T01680126 10223 20168
K1P1 272335Z AUTO 12004KT 10SM -VCTSRA BKN060 BKN070 OVC120 18/14 A2989 RMK AO2 LTG DSNT SE AND NW T01770138
K1P1 272315Z AUTO 12003KT 10SM SCT048 BKN070 BKN080 18/14 A2988 RMK AO2 LTG DSNT W T01820139
K1P1 272255Z AUTO 12003KT 10SM SCT044 BKN050 OVC065 19/14 A2989 RMK AO2 LTG DSNT NE T01860139
K1P1 272235Z AUTO 10006KT 10SM BKN044 OVC050 20/14 A2988 RMK AO2 LTG DSNT NE S AND NW T01980140
K1P1 272215Z AUTO 08008KT 10SM SCT025 BKN046 BKN050 20/14 A2987 RMK AO2 LTG DSNT SE SW AND NW T02000138
K1P1 272155Z AUTO 11004KT 10SM SCT049 SCT055 SCT075 20/13 A2988 RMK AO2 LTG DSNT SE AND SW T02020133
K1P1 272135Z AUTO 14006KT 10SM SCT048 SCT055 SCT110 20/13 A2987 RMK AO2 LTG DSNT ALQS T02000132
K1P1 272115Z AUTO 00000KT 10SM TS SCT100 SCT120 21/14 A2988 RMK AO2 LTG DSNT ALQS T02100135
K1P1 272055Z AUTO 00000KT 10SM BKN090 BKN120 20/13 A2988 RMK AO2 LTG DSNT SE SW AND NW T02010131
K1P1 272035Z AUTO 15003KT 10SM -RA SCT026 BKN090 OVC110 20/14 A2988 RMK AO2 LTG DSNT W AND NW T01950139
K1P1 272015Z AUTO 19003KT 10SM -RA SCT024 SCT065 OVC090 20/14 A2989 RMK AO2 LTG DSNT NE AND S T01950137
K1P1 271955Z AUTO 00000KT 10SM -RA SCT065 BKN085 20/13 A2990 RMK AO2 LTG DSNT W AND NW T01960127
K1P1 271935Z AUTO 00000KT 10SM SCT046 SCT050 BKN080 20/12 A2990 RMK AO2 T02010117
K1P1 271915Z AUTO 11006KT 10SM BKN044 BKN050 OVC100 20/11 A2990 RMK AO2 LTG DSNT W THRU N T02020108
K1P1 271855Z AUTO 11006KT 10SM OVC100 22/11 A2990 RMK AO2 LTG DSNT W AND NW T02200113
K1P1 271835Z AUTO 12003KT 10SM OVC100 21/11 A2991 RMK AO2 LTG DSNT SW T02100107
K1P1 271815Z AUTO 00000KT 10SM VCTS BKN090 BKN110 21/11 A2991 RMK AO2 LTG DSNT S T02090113
K1P1 271755Z AUTO 19005KT 10SM SCT110 22/13 A2993 RMK AO2 LTG DSNT W AND NW T02220125 10225 20126
K1P1 271735Z AUTO 13006KT 10SM SCT048 SCT070 SCT080 22/12 A2994 RMK AO2 LTG DSNT NW T02210117
K1P1 271715Z AUTO 13004KT 10SM BKN046 BKN065 OVC090 21/10 A2995 RMK AO2 T02120104
K1P1 271655Z AUTO 13004KT 10SM BKN045 21/11 A2995 RMK AO2 LTG DSNT NW T02110109
K1P1 271635Z AUTO 12003KT 10SM SCT044 SCT120 21/12 A2996 RMK AO2 T02050117
K1P1 271615Z AUTO 06004KT 10SM SCT120 19/12 A2996 RMK AO2 T01940120
K1P1 271555Z AUTO 07004KT 10SM SCT120 19/12 A2997 RMK AO2 LTG DSNT W T01900124
K1P1 271535Z AUTO 07003KT 10SM CLR 19/12 A2998 RMK AO2 LTG DSNT NW T01850122
K1P1 271515Z AUTO 00000KT 10SM SCT100 19/12 A2998 RMK AO2 T01850121
K1P1 271455Z AUTO 00000KT 10SM SCT100 18/12 A2999 RMK AO2 T01770124
K1P1 271435Z AUTO 00000KT 10SM SCT110 17/12 A2999 RMK AO2 T01710122
K1P1 271415Z AUTO 00000KT 10SM BKN110 17/12 A3001 RMK AO2 LTG DSNT W T01650118
K1P1 271355Z AUTO 00000KT 10SM SCT110 16/12 A3001 RMK AO2 T01570118
K1P1 271335Z AUTO 00000KT 10SM SCT110 15/12 A3001 RMK AO2 T01530118
K1P1 271315Z AUTO 00000KT 10SM SCT110 15/11 A3001 RMK AO2 LTG DSNT W T01460112
K1P1 271255Z AUTO 00000KT 10SM OVC110 14/11 A3001 RMK AO2 T01380112
K1P1 271235Z AUTO 00000KT 10SM BKN110 14/11 A3001 RMK AO2 T01350114
K1P1 271215Z AUTO 00000KT 10SM OVC110 13/11 A3001 RMK AO2 T01300111
K1P1 271155Z AUTO 00000KT 10SM SCT120 13/11 A3001 RMK AO2 T01260110 10126 20102
K1P1 271135Z AUTO 00000KT 10SM SCT110 12/11 A3000 RMK AO2 T01240110
K1P1 271115Z AUTO 00000KT 10SM BKN110 12/11 A3000 RMK AO2 T01200107
K1P1 271055Z AUTO 00000KT 10SM SCT120 12/11 A3000 RMK AO2 T01160108
K1P1 271035Z AUTO 00000KT 10SM CLR 12/11 A3000 RMK AO2 T01150107
K1P1 271015Z AUTO 00000KT 10SM CLR 11/11 A3000 RMK AO2 T01110105
K1P1 270955Z AUTO 00000KT 10SM SCT090 11/10 A3000 RMK AO2 T01080101
K1P1 270935Z AUTO 00000KT 10SM BKN100 11/10 A2999 RMK AO2 T01070100
K1P1 270915Z AUTO 00000KT 10SM BKN100 11/10 A2999 RMK AO2 T01050098
K1P1 270855Z AUTO 00000KT 10SM BKN090 BKN110 11/10 A2999 RMK AO2 T01080101
K1P1 270835Z AUTO 00000KT 10SM BKN100 11/10 A2999 RMK AO2 T01100102
K1P1 270815Z AUTO 00000KT 10SM OVC100 11/10 A2999 RMK AO2 T01100102
K1P1 270755Z AUTO 00000KT 10SM BKN090 OVC110 11/10 A2999 RMK AO2 T01080101
K1P1 270735Z AUTO 00000KT 10SM BKN090 OVC110 11/10 A2999 RMK AO2 T01070100
K1P1 270715Z AUTO 00000KT 10SM BKN090 OVC120 11/10 A2998 RMK AO2 T01050098
K1P1 270655Z AUTO 00000KT 10SM BKN100 10/10 A2999 RMK AO2 T01030096
K1P1 270635Z AUTO 00000KT 10SM BKN100 11/10 A2999 RMK AO2 T01060100
K1P1 270615Z AUTO 00000KT 10SM BKN110 10/10 A2999 RMK AO2 T01030096
K1P1 270555Z AUTO 00000KT 10SM SCT110 11/10 A2999 RMK AO2 T01060100 10180 20104
K1P1 270535Z AUTO 00000KT 10SM SCT110 11/10 A3000 RMK AO2 T01060098
K1P1 270515Z AUTO 00000KT 10SM CLR 11/10 A3000 RMK AO2 T01050096
K1P1 270455Z AUTO 00000KT 10SM CLR 11/10 A3000 RMK AO2 T01110103
K1P1 270435Z AUTO 00000KT 10SM CLR 11/10 A2999 RMK AO2 T01100100
K1P1 270415Z AUTO 00000KT 10SM CLR 11/10 A2998 RMK AO2 T01120100
K1P1 270355Z AUTO 00000KT 10SM CLR 12/11 A2998 RMK AO2 T01240110 402300095
K1P1 270335Z AUTO 00000KT 10SM SCT110 13/11 A2998 RMK AO2 T01280109
K1P1 270315Z AUTO 00000KT 10SM BKN110 14/11 A2998 RMK AO2 T01380111
K1P1 270255Z AUTO 00000KT 10SM BKN110 14/12 A2998 RMK AO2 T01360116
K1P1 270235Z AUTO 00000KT 10SM VCTS SCT120 14/11 A2998 RMK AO2 T01370113
K1P1 270215Z AUTO 00000KT 10SM SCT120 14/12 A2997 RMK AO2 T01360115
K1P1 270155Z AUTO 00000KT 10SM SCT120 15/12 A2998 RMK AO2 T01450115
K1P1 270135Z AUTO 00000KT 10SM SCT090 SCT120 15/12 A2997 RMK AO2 LTG DSNT SW T01490116
K1P1 270115Z AUTO 00000KT 10SM BKN090 16/12 A2997 RMK AO2 T01600116
K1P1 270055Z AUTO 00000KT 10SM BKN090 OVC120 17/11 A2997 RMK AO2 T01650111
K1P1 270035Z AUTO 00000KT 10SM BKN100 OVC120 18/10 A2997 RMK AO2 T01750099
K1P1 270015Z AUTO 00000KT 10SM SCT070 BKN110 18/11 A2998 RMK AO2 T01780105
K1P1 262355Z AUTO 00000KT 10SM BKN070 BKN090 18/11 A2997 RMK AO2 T01800109 10230 20180
K1P1 262335Z AUTO 00000KT 10SM BKN070 BKN080 BKN120 18/10 A2997 RMK AO2 T01820103
K1P1 262315Z AUTO 25005KT 10SM SCT033 BKN080 OVC110 19/10 A2996 RMK AO2 T01850104
K1P1 262255Z AUTO 29005KT 10SM BKN080 OVC110 19/10 A2996 RMK AO2 T01930096
K1P1 262235Z AUTO 00000KT 10SM OVC080 20/10 A2995 RMK AO2 T02000098
K1P1 262215Z AUTO 23004KT 10SM OVC085 21/08 A2994 RMK AO2 T02080080
K1P1 262155Z AUTO 24003KT 10SM SCT065 SCT075 OVC085 21/08 A2994 RMK AO2 LTG DSNT NW T02140079
K1P1 262135Z AUTO 00000KT 10SM SCT065 BKN080 BKN085 22/09 A2993 RMK AO2 T02190086
K1P1 262115Z AUTO 00000KT 10SM SCT065 BKN075 23/09 A2992 RMK AO2 T02300087
K1P1 262055Z AUTO 00000KT 10SM SCT065 BKN075 OVC085 22/08 A2993 RMK AO2 T02190084
K1P1 262035Z AUTO 32003KT 10SM BKN075 BKN085 21/09 A2993 RMK AO2 LTG DSNT W T02120090
K1P1 262015Z AUTO 29004KT 10SM SCT055 BKN065 OVC075 22/08 A2993 RMK AO2 T02220083
K1P1 261955Z AUTO 31004KT 10SM SCT055 BKN075 BKN090 22/08 A2993 RMK AO2 T02210083
K1P1 261935Z AUTO 00000KT 10SM SCT090 22/09 A2993 RMK AO2 T02240087
K1P1 261915Z AUTO 29003KT 10SM SCT090 21/09 A2994 RMK AO2 T02120090
K1P1 261855Z AUTO 00000KT 10SM BKN090 22/09 A2994 RMK AO2 T02180088
K1P1 261835Z AUTO 00000KT 10SM OVC090 21/09 A2995 RMK AO2 T02050087
K1P1 261815Z AUTO 29003KT 10SM OVC080 20/09 A2995 RMK AO2 T02030092
K1P1 261755Z AUTO 33003KT 10SM SCT055 SCT065 OVC080 20/09 A2995 RMK AO2 T02000090 10211 20160
K1P1 261735Z AUTO 29004KT 10SM SCT055 BKN070 OVC080 20/09 A2996 RMK AO2 T01990093
K1P1 261715Z AUTO 25003KT 10SM SCT065 OVC075 20/09 A2995 RMK AO2 T02040091
K1P1 261655Z AUTO 30005KT 10SM SCT050 SCT060 OVC075 20/09 A2996 RMK AO2 T02000089
K1P1 261635Z AUTO 00000KT 10SM SCT050 BKN070 20/09 A2996 RMK AO2 T02040088
K1P1 261615Z AUTO 32006KT 10SM SCT050 BKN070 21/09 A2996 RMK AO2 T02050089
K1P1 261555Z AUTO 28008KT 10SM SCT060 21/09 A2996 RMK AO2 T02110085


Page loaded:  03:39 UTC  |   08:39 PM Pacific  |   09:39 PM Mountain  |   10:39 PM Central  |   11:39 PM Eastern

 

ADVISORIES

FORECASTS

FORECASTS

OBSERVATIONS

USER TOOLS

ABOUT US